sensor_id;sensor_type;location;lat;lon;timestamp;P1;durP1;ratioP1;P2;durP2;ratioP2
59492;SDS011;45497;43.996;22.876;2023-08-20T00:00:13;9.43;;;5.67;;
59492;SDS011;45497;43.996;22.876;2023-08-20T00:02:41;7.68;;;5.20;;
59492;SDS011;45497;43.996;22.876;2023-08-20T00:05:08;23.20;;;6.70;;
59492;SDS011;45497;43.996;22.876;2023-08-20T00:07:34;8.15;;;5.20;;
59492;SDS011;45497;43.996;22.876;2023-08-20T00:10:00;9.33;;;5.53;;
59492;SDS011;45497;43.996;22.876;2023-08-20T00:12:26;9.85;;;5.38;;
59492;SDS011;45497;43.996;22.876;2023-08-20T00:15:01;8.40;;;5.20;;
59492;SDS011;45497;43.996;22.876;2023-08-20T00:17:34;9.35;;;5.43;;
59492;SDS011;45497;43.996;22.876;2023-08-20T00:20:05;8.73;;;5.80;;
59492;SDS011;45497;43.996;22.876;2023-08-20T00:22:38;8.18;;;5.68;;
59492;SDS011;45497;43.996;22.876;2023-08-20T00:25:05;9.52;;;5.65;;
59492;SDS011;45497;43.996;22.876;2023-08-20T00:27:32;9.45;;;5.32;;
59492;SDS011;45497;43.996;22.876;2023-08-20T00:29:58;9.57;;;5.70;;
59492;SDS011;45497;43.996;22.876;2023-08-20T00:32:24;6.85;;;5.55;;
59492;SDS011;45497;43.996;22.876;2023-08-20T00:34:52;9.17;;;5.77;;
59492;SDS011;45497;43.996;22.876;2023-08-20T00:37:17;7.95;;;5.70;;
59492;SDS011;45497;43.996;22.876;2023-08-20T00:39:42;9.27;;;6.37;;
59492;SDS011;45497;43.996;22.876;2023-08-20T00:42:08;8.47;;;5.50;;
59492;SDS011;45497;43.996;22.876;2023-08-20T00:44:34;8.83;;;5.53;;
59492;SDS011;45497;43.996;22.876;2023-08-20T00:47:01;8.52;;;5.38;;
59492;SDS011;45497;43.996;22.876;2023-08-20T00:49:28;7.25;;;5.30;;
59492;SDS011;45497;43.996;22.876;2023-08-20T00:51:54;7.65;;;5.50;;
59492;SDS011;45497;43.996;22.876;2023-08-20T00:54:20;7.28;;;5.53;;
59492;SDS011;45497;43.996;22.876;2023-08-20T00:56:47;8.25;;;5.82;;
59492;SDS011;45497;43.996;22.876;2023-08-20T00:59:15;9.55;;;5.43;;
59492;SDS011;45497;43.996;22.876;2023-08-20T01:01:41;7.65;;;5.32;;
59492;SDS011;45497;43.996;22.876;2023-08-20T01:04:08;8.18;;;5.78;;
59492;SDS011;45497;43.996;22.876;2023-08-20T01:09:34;8.57;;;5.40;;
59492;SDS011;45497;43.996;22.876;2023-08-20T01:12:06;10.23;;;5.55;;
59492;SDS011;45497;43.996;22.876;2023-08-20T01:14:31;10.03;;;5.63;;
59492;SDS011;45497;43.996;22.876;2023-08-20T01:16:57;8.05;;;5.55;;
59492;SDS011;45497;43.996;22.876;2023-08-20T01:19:22;10.20;;;5.50;;
59492;SDS011;45497;43.996;22.876;2023-08-20T01:24:40;10.02;;;4.88;;
59492;SDS011;45497;43.996;22.876;2023-08-20T01:29:56;9.10;;;5.60;;
59492;SDS011;45497;43.996;22.876;2023-08-20T01:32:23;9.63;;;5.22;;
59492;SDS011;45497;43.996;22.876;2023-08-20T01:34:49;8.80;;;5.20;;
59492;SDS011;45497;43.996;22.876;2023-08-20T01:37:15;10.45;;;5.35;;
59492;SDS011;45497;43.996;22.876;2023-08-20T01:39:41;9.95;;;5.47;;
59492;SDS011;45497;43.996;22.876;2023-08-20T01:42:07;7.87;;;5.23;;
59492;SDS011;45497;43.996;22.876;2023-08-20T01:44:32;8.82;;;5.57;;
59492;SDS011;45497;43.996;22.876;2023-08-20T01:46:58;8.13;;;5.60;;
59492;SDS011;45497;43.996;22.876;2023-08-20T01:49:23;7.63;;;5.40;;
59492;SDS011;45497;43.996;22.876;2023-08-20T01:51:49;9.95;;;5.50;;
59492;SDS011;45497;43.996;22.876;2023-08-20T01:54:14;7.90;;;5.17;;
59492;SDS011;45497;43.996;22.876;2023-08-20T01:56:40;6.43;;;5.03;;
59492;SDS011;45497;43.996;22.876;2023-08-20T01:59:05;9.55;;;5.30;;
59492;SDS011;45497;43.996;22.876;2023-08-20T02:01:31;6.93;;;5.17;;
59492;SDS011;45497;43.996;22.876;2023-08-20T02:03:56;7.50;;;5.30;;
59492;SDS011;45497;43.996;22.876;2023-08-20T02:06:22;8.85;;;5.20;;
59492;SDS011;45497;43.996;22.876;2023-08-20T02:08:47;7.57;;;5.37;;
59492;SDS011;45497;43.996;22.876;2023-08-20T02:11:13;9.57;;;5.40;;
59492;SDS011;45497;43.996;22.876;2023-08-20T02:13:38;10.50;;;5.50;;
59492;SDS011;45497;43.996;22.876;2023-08-20T02:16:04;12.85;;;5.60;;
59492;SDS011;45497;43.996;22.876;2023-08-20T02:18:30;7.67;;;5.40;;
59492;SDS011;45497;43.996;22.876;2023-08-20T02:20:55;8.73;;;5.07;;
59492;SDS011;45497;43.996;22.876;2023-08-20T02:23:21;8.48;;;5.35;;
59492;SDS011;45497;43.996;22.876;2023-08-20T02:25:47;10.40;;;5.63;;
59492;SDS011;45497;43.996;22.876;2023-08-20T02:28:13;8.82;;;5.75;;
59492;SDS011;45497;43.996;22.876;2023-08-20T02:30:42;9.43;;;5.40;;
59492;SDS011;45497;43.996;22.876;2023-08-20T02:33:08;9.88;;;5.72;;
59492;SDS011;45497;43.996;22.876;2023-08-20T02:35:35;8.52;;;5.63;;
59492;SDS011;45497;43.996;22.876;2023-08-20T02:38:01;9.30;;;5.20;;
59492;SDS011;45497;43.996;22.876;2023-08-20T02:40:27;8.60;;;5.55;;
59492;SDS011;45497;43.996;22.876;2023-08-20T02:42:52;8.43;;;5.30;;
59492;SDS011;45497;43.996;22.876;2023-08-20T02:45:17;9.40;;;5.57;;
59492;SDS011;45497;43.996;22.876;2023-08-20T02:47:43;9.83;;;5.70;;
59492;SDS011;45497;43.996;22.876;2023-08-20T02:50:08;8.07;;;5.47;;
59492;SDS011;45497;43.996;22.876;2023-08-20T02:52:34;7.10;;;5.33;;
59492;SDS011;45497;43.996;22.876;2023-08-20T02:54:59;9.43;;;6.00;;
59492;SDS011;45497;43.996;22.876;2023-08-20T02:57:25;7.45;;;5.40;;
59492;SDS011;45497;43.996;22.876;2023-08-20T02:59:51;8.67;;;5.70;;
59492;SDS011;45497;43.996;22.876;2023-08-20T03:02:16;8.17;;;5.50;;
59492;SDS011;45497;43.996;22.876;2023-08-20T03:04:42;8.48;;;5.38;;
59492;SDS011;45497;43.996;22.876;2023-08-20T03:07:08;7.88;;;5.47;;
59492;SDS011;45497;43.996;22.876;2023-08-20T03:09:33;7.47;;;5.33;;
59492;SDS011;45497;43.996;22.876;2023-08-20T03:11:59;7.47;;;5.15;;
59492;SDS011;45497;43.996;22.876;2023-08-20T03:14:24;6.55;;;5.70;;
59492;SDS011;45497;43.996;22.876;2023-08-20T03:16:50;12.20;;;5.83;;
59492;SDS011;45497;43.996;22.876;2023-08-20T03:19:15;9.80;;;5.57;;
59492;SDS011;45497;43.996;22.876;2023-08-20T03:21:41;11.40;;;5.40;;
59492;SDS011;45497;43.996;22.876;2023-08-20T03:24:08;9.87;;;5.50;;
59492;SDS011;45497;43.996;22.876;2023-08-20T03:26:33;9.32;;;5.75;;
59492;SDS011;45497;43.996;22.876;2023-08-20T03:28:59;10.63;;;5.73;;
59492;SDS011;45497;43.996;22.876;2023-08-20T03:31:24;8.60;;;5.40;;
59492;SDS011;45497;43.996;22.876;2023-08-20T03:33:50;9.75;;;5.85;;
59492;SDS011;45497;43.996;22.876;2023-08-20T03:36:16;9.40;;;5.53;;
59492;SDS011;45497;43.996;22.876;2023-08-20T03:38:41;8.10;;;5.43;;
59492;SDS011;45497;43.996;22.876;2023-08-20T03:41:07;7.37;;;5.47;;
59492;SDS011;45497;43.996;22.876;2023-08-20T03:43:32;8.50;;;5.60;;
59492;SDS011;45497;43.996;22.876;2023-08-20T03:45:58;9.13;;;5.43;;
59492;SDS011;45497;43.996;22.876;2023-08-20T03:48:23;8.20;;;5.77;;
59492;SDS011;45497;43.996;22.876;2023-08-20T03:50:49;7.95;;;5.70;;
59492;SDS011;45497;43.996;22.876;2023-08-20T03:53:14;9.77;;;6.00;;
59492;SDS011;45497;43.996;22.876;2023-08-20T03:55:40;10.07;;;6.00;;
59492;SDS011;45497;43.996;22.876;2023-08-20T03:58:06;8.05;;;6.03;;
59492;SDS011;45497;43.996;22.876;2023-08-20T04:00:34;9.05;;;6.20;;
59492;SDS011;45497;43.996;22.876;2023-08-20T04:03:00;10.95;;;6.13;;
59492;SDS011;45497;43.996;22.876;2023-08-20T04:05:25;11.80;;;6.07;;
59492;SDS011;45497;43.996;22.876;2023-08-20T04:07:51;8.17;;;5.60;;
59492;SDS011;45497;43.996;22.876;2023-08-20T04:10:16;8.20;;;5.93;;
59492;SDS011;45497;43.996;22.876;2023-08-20T04:12:42;9.00;;;6.20;;
59492;SDS011;45497;43.996;22.876;2023-08-20T04:15:07;9.47;;;7.03;;
59492;SDS011;45497;43.996;22.876;2023-08-20T04:17:33;11.65;;;7.25;;
59492;SDS011;45497;43.996;22.876;2023-08-20T04:19:59;10.40;;;6.50;;
59492;SDS011;45497;43.996;22.876;2023-08-20T04:22:24;10.13;;;6.80;;
59492;SDS011;45497;43.996;22.876;2023-08-20T04:24:50;11.52;;;6.95;;
59492;SDS011;45497;43.996;22.876;2023-08-20T04:27:15;10.13;;;7.13;;
59492;SDS011;45497;43.996;22.876;2023-08-20T04:29:41;9.05;;;6.97;;
59492;SDS011;45497;43.996;22.876;2023-08-20T04:32:06;8.13;;;6.13;;
59492;SDS011;45497;43.996;22.876;2023-08-20T04:34:32;10.10;;;6.73;;
59492;SDS011;45497;43.996;22.876;2023-08-20T04:36:57;9.67;;;6.33;;
59492;SDS011;45497;43.996;22.876;2023-08-20T04:39:23;8.30;;;5.68;;
59492;SDS011;45497;43.996;22.876;2023-08-20T04:41:48;8.23;;;6.00;;
59492;SDS011;45497;43.996;22.876;2023-08-20T04:44:14;11.77;;;6.60;;
59492;SDS011;45497;43.996;22.876;2023-08-20T04:46:39;11.20;;;7.20;;
59492;SDS011;45497;43.996;22.876;2023-08-20T04:49:05;9.50;;;7.00;;
59492;SDS011;45497;43.996;22.876;2023-08-20T04:51:30;8.77;;;6.57;;
59492;SDS011;45497;43.996;22.876;2023-08-20T04:53:56;9.40;;;6.88;;
59492;SDS011;45497;43.996;22.876;2023-08-20T04:56:21;11.13;;;6.83;;
59492;SDS011;45497;43.996;22.876;2023-08-20T04:58:47;12.23;;;7.23;;
59492;SDS011;45497;43.996;22.876;2023-08-20T05:01:12;10.00;;;6.80;;
59492;SDS011;45497;43.996;22.876;2023-08-20T05:03:38;10.13;;;6.60;;
59492;SDS011;45497;43.996;22.876;2023-08-20T05:06:03;12.57;;;8.00;;
59492;SDS011;45497;43.996;22.876;2023-08-20T05:08:29;9.45;;;6.28;;
59492;SDS011;45497;43.996;22.876;2023-08-20T05:10:55;10.47;;;6.50;;
59492;SDS011;45497;43.996;22.876;2023-08-20T05:13:20;9.50;;;6.63;;
59492;SDS011;45497;43.996;22.876;2023-08-20T05:15:46;10.17;;;6.50;;
59492;SDS011;45497;43.996;22.876;2023-08-20T05:18:11;10.75;;;6.35;;
59492;SDS011;45497;43.996;22.876;2023-08-20T05:20:37;10.00;;;6.93;;
59492;SDS011;45497;43.996;22.876;2023-08-20T05:23:02;11.05;;;7.10;;
59492;SDS011;45497;43.996;22.876;2023-08-20T05:25:29;12.23;;;8.13;;
59492;SDS011;45497;43.996;22.876;2023-08-20T05:27:54;13.90;;;9.13;;
59492;SDS011;45497;43.996;22.876;2023-08-20T05:30:20;12.93;;;8.63;;
59492;SDS011;45497;43.996;22.876;2023-08-20T05:32:45;12.37;;;8.00;;
59492;SDS011;45497;43.996;22.876;2023-08-20T05:35:11;11.93;;;8.23;;
59492;SDS011;45497;43.996;22.876;2023-08-20T05:37:36;11.70;;;8.47;;
59492;SDS011;45497;43.996;22.876;2023-08-20T05:40:02;11.27;;;7.70;;
59492;SDS011;45497;43.996;22.876;2023-08-20T05:42:27;9.70;;;7.35;;
59492;SDS011;45497;43.996;22.876;2023-08-20T05:44:53;9.93;;;7.50;;
59492;SDS011;45497;43.996;22.876;2023-08-20T05:47:19;14.80;;;9.98;;
59492;SDS011;45497;43.996;22.876;2023-08-20T05:49:44;20.93;;;13.10;;
59492;SDS011;45497;43.996;22.876;2023-08-20T05:52:10;17.30;;;9.93;;
59492;SDS011;45497;43.996;22.876;2023-08-20T05:54:35;11.20;;;7.97;;
59492;SDS011;45497;43.996;22.876;2023-08-20T05:57:01;9.23;;;6.68;;
59492;SDS011;45497;43.996;22.876;2023-08-20T05:59:27;9.77;;;7.03;;
59492;SDS011;45497;43.996;22.876;2023-08-20T06:01:53;11.05;;;6.75;;
59492;SDS011;45497;43.996;22.876;2023-08-20T06:04:19;12.25;;;7.30;;
59492;SDS011;45497;43.996;22.876;2023-08-20T06:06:45;10.18;;;6.80;;
59492;SDS011;45497;43.996;22.876;2023-08-20T06:09:10;8.87;;;6.43;;
59492;SDS011;45497;43.996;22.876;2023-08-20T06:11:36;13.23;;;7.83;;
59492;SDS011;45497;43.996;22.876;2023-08-20T06:14:02;10.57;;;7.43;;
59492;SDS011;45497;43.996;22.876;2023-08-20T06:16:27;13.63;;;6.90;;
59492;SDS011;45497;43.996;22.876;2023-08-20T06:18:53;11.27;;;6.30;;
59492;SDS011;45497;43.996;22.876;2023-08-20T06:21:18;12.00;;;6.80;;
59492;SDS011;45497;43.996;22.876;2023-08-20T06:23:44;8.55;;;6.72;;
59492;SDS011;45497;43.996;22.876;2023-08-20T06:26:09;10.23;;;6.85;;
59492;SDS011;45497;43.996;22.876;2023-08-20T06:28:35;10.43;;;6.60;;
59492;SDS011;45497;43.996;22.876;2023-08-20T06:31:00;9.07;;;6.00;;
59492;SDS011;45497;43.996;22.876;2023-08-20T06:33:26;10.70;;;6.20;;
59492;SDS011;45497;43.996;22.876;2023-08-20T06:35:51;8.88;;;6.43;;
59492;SDS011;45497;43.996;22.876;2023-08-20T06:38:17;8.15;;;5.60;;
59492;SDS011;45497;43.996;22.876;2023-08-20T06:40:42;7.33;;;5.60;;
59492;SDS011;45497;43.996;22.876;2023-08-20T06:43:07;9.37;;;6.00;;
59492;SDS011;45497;43.996;22.876;2023-08-20T06:45:33;9.93;;;5.97;;
59492;SDS011;45497;43.996;22.876;2023-08-20T06:47:58;7.27;;;5.50;;
59492;SDS011;45497;43.996;22.876;2023-08-20T06:50:24;8.20;;;5.43;;
59492;SDS011;45497;43.996;22.876;2023-08-20T06:52:49;9.23;;;5.30;;
59492;SDS011;45497;43.996;22.876;2023-08-20T06:55:15;13.23;;;6.17;;
59492;SDS011;45497;43.996;22.876;2023-08-20T06:57:40;9.17;;;6.00;;
59492;SDS011;45497;43.996;22.876;2023-08-20T07:00:06;8.33;;;5.63;;
59492;SDS011;45497;43.996;22.876;2023-08-20T07:02:32;8.15;;;5.43;;
59492;SDS011;45497;43.996;22.876;2023-08-20T07:04:57;8.67;;;5.90;;
59492;SDS011;45497;43.996;22.876;2023-08-20T07:07:23;11.07;;;6.63;;
59492;SDS011;45497;43.996;22.876;2023-08-20T07:09:48;11.80;;;6.10;;
59492;SDS011;45497;43.996;22.876;2023-08-20T07:12:14;7.25;;;6.20;;
59492;SDS011;45497;43.996;22.876;2023-08-20T07:14:39;8.32;;;5.93;;
59492;SDS011;45497;43.996;22.876;2023-08-20T07:17:05;9.57;;;6.03;;
59492;SDS011;45497;43.996;22.876;2023-08-20T07:19:30;9.10;;;6.13;;
59492;SDS011;45497;43.996;22.876;2023-08-20T07:21:56;11.17;;;6.20;;
59492;SDS011;45497;43.996;22.876;2023-08-20T07:24:21;10.73;;;6.00;;
59492;SDS011;45497;43.996;22.876;2023-08-20T07:26:54;10.40;;;6.20;;
59492;SDS011;45497;43.996;22.876;2023-08-20T07:29:24;8.63;;;5.60;;
59492;SDS011;45497;43.996;22.876;2023-08-20T07:31:51;9.47;;;5.80;;
59492;SDS011;45497;43.996;22.876;2023-08-20T07:34:16;9.52;;;5.93;;
59492;SDS011;45497;43.996;22.876;2023-08-20T07:36:42;8.70;;;6.50;;
59492;SDS011;45497;43.996;22.876;2023-08-20T07:39:07;10.37;;;6.60;;
59492;SDS011;45497;43.996;22.876;2023-08-20T07:41:33;8.35;;;6.25;;
59492;SDS011;45497;43.996;22.876;2023-08-20T07:43:59;11.27;;;6.20;;
59492;SDS011;45497;43.996;22.876;2023-08-20T07:46:25;9.00;;;6.10;;
59492;SDS011;45497;43.996;22.876;2023-08-20T07:48:50;8.17;;;5.80;;
59492;SDS011;45497;43.996;22.876;2023-08-20T07:51:16;9.23;;;6.00;;
59492;SDS011;45497;43.996;22.876;2023-08-20T07:53:41;9.80;;;5.77;;
59492;SDS011;45497;43.996;22.876;2023-08-20T07:56:07;7.87;;;5.40;;
59492;SDS011;45497;43.996;22.876;2023-08-20T07:58:33;7.65;;;5.20;;
59492;SDS011;45497;43.996;22.876;2023-08-20T08:00:59;9.20;;;5.40;;
59492;SDS011;45497;43.996;22.876;2023-08-20T08:03:25;8.47;;;5.20;;
59492;SDS011;45497;43.996;22.876;2023-08-20T08:05:54;8.07;;;5.45;;
59492;SDS011;45497;43.996;22.876;2023-08-20T08:08:20;10.70;;;5.70;;
59492;SDS011;45497;43.996;22.876;2023-08-20T08:10:46;7.30;;;5.23;;
59492;SDS011;45497;43.996;22.876;2023-08-20T08:13:12;7.93;;;4.97;;
59492;SDS011;45497;43.996;22.876;2023-08-20T08:15:39;7.43;;;5.30;;
59492;SDS011;45497;43.996;22.876;2023-08-20T08:18:04;7.65;;;4.90;;
59492;SDS011;45497;43.996;22.876;2023-08-20T08:20:30;8.68;;;5.35;;
59492;SDS011;45497;43.996;22.876;2023-08-20T08:22:56;8.60;;;5.20;;
59492;SDS011;45497;43.996;22.876;2023-08-20T08:25:22;10.27;;;5.40;;
59492;SDS011;45497;43.996;22.876;2023-08-20T08:27:47;9.00;;;5.00;;
59492;SDS011;45497;43.996;22.876;2023-08-20T08:30:13;6.68;;;4.80;;
59492;SDS011;45497;43.996;22.876;2023-08-20T08:32:39;7.20;;;5.13;;
59492;SDS011;45497;43.996;22.876;2023-08-20T08:35:05;9.20;;;5.05;;
59492;SDS011;45497;43.996;22.876;2023-08-20T08:37:31;8.20;;;5.60;;
59492;SDS011;45497;43.996;22.876;2023-08-20T08:39:57;5.88;;;4.97;;
59492;SDS011;45497;43.996;22.876;2023-08-20T08:42:22;7.03;;;5.32;;
59492;SDS011;45497;43.996;22.876;2023-08-20T08:44:52;7.55;;;4.68;;
59492;SDS011;45497;43.996;22.876;2023-08-20T08:47:21;6.63;;;4.80;;
59492;SDS011;45497;43.996;22.876;2023-08-20T08:49:47;8.07;;;5.10;;
59492;SDS011;45497;43.996;22.876;2023-08-20T08:52:13;11.20;;;5.05;;
59492;SDS011;45497;43.996;22.876;2023-08-20T08:54:39;9.93;;;5.50;;
59492;SDS011;45497;43.996;22.876;2023-08-20T08:57:05;7.93;;;5.10;;
59492;SDS011;45497;43.996;22.876;2023-08-20T08:59:30;6.68;;;4.97;;
59492;SDS011;45497;43.996;22.876;2023-08-20T09:01:57;22.25;;;11.27;;
59492;SDS011;45497;43.996;22.876;2023-08-20T09:04:23;7.90;;;4.80;;
59492;SDS011;45497;43.996;22.876;2023-08-20T09:06:49;10.43;;;5.30;;
59492;SDS011;45497;43.996;22.876;2023-08-20T09:09:20;7.90;;;5.35;;
59492;SDS011;45497;43.996;22.876;2023-08-20T09:11:46;6.90;;;5.20;;
59492;SDS011;45497;43.996;22.876;2023-08-20T09:14:28;8.07;;;4.93;;
59492;SDS011;45497;43.996;22.876;2023-08-20T09:16:55;8.03;;;4.87;;
59492;SDS011;45497;43.996;22.876;2023-08-20T09:19:22;8.50;;;5.00;;
59492;SDS011;45497;43.996;22.876;2023-08-20T09:21:48;9.02;;;5.20;;
59492;SDS011;45497;43.996;22.876;2023-08-20T09:24:14;10.13;;;5.40;;
59492;SDS011;45497;43.996;22.876;2023-08-20T09:26:44;7.43;;;4.85;;
59492;SDS011;45497;43.996;22.876;2023-08-20T09:29:10;9.48;;;4.93;;
59492;SDS011;45497;43.996;22.876;2023-08-20T09:31:37;8.23;;;4.67;;
59492;SDS011;45497;43.996;22.876;2023-08-20T09:34:04;9.52;;;5.25;;
59492;SDS011;45497;43.996;22.876;2023-08-20T09:36:30;6.73;;;4.97;;
59492;SDS011;45497;43.996;22.876;2023-08-20T09:38:57;6.63;;;4.80;;
59492;SDS011;45497;43.996;22.876;2023-08-20T09:41:22;7.80;;;5.20;;
59492;SDS011;45497;43.996;22.876;2023-08-20T09:43:48;9.05;;;5.28;;
59492;SDS011;45497;43.996;22.876;2023-08-20T09:46:20;5.78;;;4.53;;
59492;SDS011;45497;43.996;22.876;2023-08-20T09:48:49;7.63;;;4.88;;
59492;SDS011;45497;43.996;22.876;2023-08-20T09:51:22;9.18;;;5.10;;
59492;SDS011;45497;43.996;22.876;2023-08-20T09:53:54;7.75;;;4.35;;
59492;SDS011;45497;43.996;22.876;2023-08-20T09:56:28;6.00;;;4.47;;
59492;SDS011;45497;43.996;22.876;2023-08-20T09:58:56;7.07;;;4.30;;
59492;SDS011;45497;43.996;22.876;2023-08-20T10:01:23;6.97;;;4.63;;
59492;SDS011;45497;43.996;22.876;2023-08-20T10:03:50;7.18;;;5.20;;
59492;SDS011;45497;43.996;22.876;2023-08-20T10:06:16;8.13;;;4.90;;
59492;SDS011;45497;43.996;22.876;2023-08-20T10:08:43;7.72;;;4.53;;
59492;SDS011;45497;43.996;22.876;2023-08-20T10:11:11;8.43;;;4.82;;
59492;SDS011;45497;43.996;22.876;2023-08-20T10:13:37;8.03;;;4.70;;
59492;SDS011;45497;43.996;22.876;2023-08-20T10:16:03;9.07;;;4.90;;
59492;SDS011;45497;43.996;22.876;2023-08-20T10:18:28;6.65;;;4.60;;
59492;SDS011;45497;43.996;22.876;2023-08-20T10:20:58;6.40;;;4.83;;
59492;SDS011;45497;43.996;22.876;2023-08-20T10:23:24;9.38;;;4.55;;
59492;SDS011;45497;43.996;22.876;2023-08-20T10:25:51;7.73;;;4.93;;
59492;SDS011;45497;43.996;22.876;2023-08-20T10:28:21;9.25;;;5.03;;
59492;SDS011;45497;43.996;22.876;2023-08-20T10:31:08;7.18;;;5.22;;
59492;SDS011;45497;43.996;22.876;2023-08-20T10:36:21;7.97;;;5.07;;
59492;SDS011;45497;43.996;22.876;2023-08-20T10:38:50;11.30;;;5.07;;
59492;SDS011;45497;43.996;22.876;2023-08-20T10:41:15;6.80;;;4.97;;
59492;SDS011;45497;43.996;22.876;2023-08-20T10:43:48;11.00;;;5.20;;
59492;SDS011;45497;43.996;22.876;2023-08-20T10:48:47;8.30;;;5.18;;
59492;SDS011;45497;43.996;22.876;2023-08-20T10:51:19;6.93;;;4.97;;
59492;SDS011;45497;43.996;22.876;2023-08-20T10:54:08;8.90;;;5.03;;
59492;SDS011;45497;43.996;22.876;2023-08-20T10:56:45;11.40;;;5.35;;
59492;SDS011;45497;43.996;22.876;2023-08-20T11:01:53;7.82;;;5.13;;
59492;SDS011;45497;43.996;22.876;2023-08-20T11:04:23;9.95;;;4.90;;
59492;SDS011;45497;43.996;22.876;2023-08-20T11:06:53;7.13;;;5.03;;
59492;SDS011;45497;43.996;22.876;2023-08-20T11:09:24;6.90;;;4.60;;
59492;SDS011;45497;43.996;22.876;2023-08-20T11:11:51;11.15;;;5.05;;
59492;SDS011;45497;43.996;22.876;2023-08-20T11:14:18;6.72;;;4.78;;
59492;SDS011;45497;43.996;22.876;2023-08-20T11:16:45;9.88;;;4.75;;
59492;SDS011;45497;43.996;22.876;2023-08-20T11:19:12;8.50;;;4.53;;
59492;SDS011;45497;43.996;22.876;2023-08-20T11:21:39;11.45;;;4.88;;
59492;SDS011;45497;43.996;22.876;2023-08-20T11:24:09;8.10;;;4.53;;
59492;SDS011;45497;43.996;22.876;2023-08-20T11:26:35;7.25;;;4.93;;
59492;SDS011;45497;43.996;22.876;2023-08-20T11:29:11;8.65;;;4.78;;
59492;SDS011;45497;43.996;22.876;2023-08-20T11:31:38;7.77;;;4.87;;
59492;SDS011;45497;43.996;22.876;2023-08-20T11:34:04;7.60;;;4.80;;
59492;SDS011;45497;43.996;22.876;2023-08-20T11:36:30;6.38;;;4.40;;
59492;SDS011;45497;43.996;22.876;2023-08-20T11:38:56;9.30;;;4.80;;
59492;SDS011;45497;43.996;22.876;2023-08-20T11:41:23;6.63;;;4.50;;
59492;SDS011;45497;43.996;22.876;2023-08-20T11:43:50;8.85;;;4.30;;
59492;SDS011;45497;43.996;22.876;2023-08-20T11:46:18;7.35;;;4.38;;
59492;SDS011;45497;43.996;22.876;2023-08-20T11:54:08;6.87;;;4.03;;
59492;SDS011;45497;43.996;22.876;2023-08-20T11:56:35;6.20;;;4.20;;
59492;SDS011;45497;43.996;22.876;2023-08-20T11:59:01;7.03;;;4.13;;
59492;SDS011;45497;43.996;22.876;2023-08-20T12:01:30;5.97;;;4.40;;
59492;SDS011;45497;43.996;22.876;2023-08-20T12:04:05;6.53;;;3.80;;
59492;SDS011;45497;43.996;22.876;2023-08-20T12:06:34;6.95;;;4.32;;
59492;SDS011;45497;43.996;22.876;2023-08-20T12:09:01;7.57;;;4.45;;
59492;SDS011;45497;43.996;22.876;2023-08-20T12:11:29;7.38;;;5.05;;
59492;SDS011;45497;43.996;22.876;2023-08-20T12:13:56;4.80;;;4.10;;
59492;SDS011;45497;43.996;22.876;2023-08-20T12:16:22;7.80;;;4.22;;
59492;SDS011;45497;43.996;22.876;2023-08-20T12:18:54;7.28;;;4.50;;
59492;SDS011;45497;43.996;22.876;2023-08-20T12:21:19;6.47;;;4.60;;
59492;SDS011;45497;43.996;22.876;2023-08-20T12:23:45;5.60;;;3.85;;
59492;SDS011;45497;43.996;22.876;2023-08-20T12:26:10;4.55;;;3.65;;
59492;SDS011;45497;43.996;22.876;2023-08-20T12:28:36;6.38;;;3.80;;
59492;SDS011;45497;43.996;22.876;2023-08-20T12:31:01;6.95;;;4.00;;
59492;SDS011;45497;43.996;22.876;2023-08-20T12:33:28;7.10;;;4.97;;
59492;SDS011;45497;43.996;22.876;2023-08-20T12:35:54;5.65;;;4.32;;
59492;SDS011;45497;43.996;22.876;2023-08-20T12:38:20;5.93;;;4.63;;
59492;SDS011;45497;43.996;22.876;2023-08-20T12:40:46;5.45;;;4.40;;
59492;SDS011;45497;43.996;22.876;2023-08-20T12:43:11;8.52;;;4.60;;
59492;SDS011;45497;43.996;22.876;2023-08-20T12:45:37;6.00;;;4.30;;
59492;SDS011;45497;43.996;22.876;2023-08-20T12:48:03;6.93;;;4.10;;
59492;SDS011;45497;43.996;22.876;2023-08-20T12:50:29;7.00;;;3.92;;
59492;SDS011;45497;43.996;22.876;2023-08-20T12:52:55;7.30;;;4.40;;
59492;SDS011;45497;43.996;22.876;2023-08-20T12:55:21;6.60;;;4.17;;
59492;SDS011;45497;43.996;22.876;2023-08-20T12:57:53;5.25;;;4.00;;
59492;SDS011;45497;43.996;22.876;2023-08-20T13:00:20;8.38;;;4.22;;
59492;SDS011;45497;43.996;22.876;2023-08-20T13:02:53;5.32;;;4.53;;
59492;SDS011;45497;43.996;22.876;2023-08-20T13:05:20;4.93;;;4.07;;
59492;SDS011;45497;43.996;22.876;2023-08-20T13:07:47;7.80;;;4.10;;
59492;SDS011;45497;43.996;22.876;2023-08-20T13:10:13;5.65;;;4.18;;
59492;SDS011;45497;43.996;22.876;2023-08-20T13:12:40;7.20;;;4.05;;
59492;SDS011;45497;43.996;22.876;2023-08-20T13:15:07;6.97;;;3.85;;
59492;SDS011;45497;43.996;22.876;2023-08-20T13:17:36;10.88;;;4.00;;
59492;SDS011;45497;43.996;22.876;2023-08-20T13:20:02;6.25;;;3.92;;
59492;SDS011;45497;43.996;22.876;2023-08-20T13:22:30;5.78;;;3.90;;
59492;SDS011;45497;43.996;22.876;2023-08-20T13:24:55;7.30;;;3.85;;
59492;SDS011;45497;43.996;22.876;2023-08-20T13:27:21;5.13;;;3.70;;
59492;SDS011;45497;43.996;22.876;2023-08-20T13:29:46;7.65;;;4.63;;
59492;SDS011;45497;43.996;22.876;2023-08-20T13:32:12;6.03;;;3.83;;
59492;SDS011;45497;43.996;22.876;2023-08-20T13:34:37;7.00;;;4.10;;
59492;SDS011;45497;43.996;22.876;2023-08-20T13:37:03;5.90;;;3.90;;
59492;SDS011;45497;43.996;22.876;2023-08-20T13:39:28;6.13;;;3.90;;
59492;SDS011;45497;43.996;22.876;2023-08-20T13:41:54;7.83;;;4.07;;
59492;SDS011;45497;43.996;22.876;2023-08-20T13:44:19;5.63;;;3.97;;
59492;SDS011;45497;43.996;22.876;2023-08-20T13:46:45;6.93;;;4.05;;
59492;SDS011;45497;43.996;22.876;2023-08-20T13:49:10;7.07;;;4.27;;
59492;SDS011;45497;43.996;22.876;2023-08-20T13:51:36;9.70;;;4.27;;
59492;SDS011;45497;43.996;22.876;2023-08-20T13:54:01;7.60;;;4.03;;
59492;SDS011;45497;43.996;22.876;2023-08-20T13:56:28;6.20;;;3.83;;
59492;SDS011;45497;43.996;22.876;2023-08-20T13:58:53;7.90;;;3.73;;
59492;SDS011;45497;43.996;22.876;2023-08-20T14:01:19;4.70;;;3.83;;
59492;SDS011;45497;43.996;22.876;2023-08-20T14:03:45;5.07;;;3.70;;
59492;SDS011;45497;43.996;22.876;2023-08-20T14:06:10;7.60;;;3.80;;
59492;SDS011;45497;43.996;22.876;2023-08-20T14:08:36;4.53;;;3.80;;
59492;SDS011;45497;43.996;22.876;2023-08-20T14:11:01;7.83;;;4.30;;
59492;SDS011;45497;43.996;22.876;2023-08-20T14:13:26;7.60;;;4.00;;
59492;SDS011;45497;43.996;22.876;2023-08-20T14:15:52;7.47;;;4.10;;
59492;SDS011;45497;43.996;22.876;2023-08-20T14:18:17;5.30;;;3.87;;
59492;SDS011;45497;43.996;22.876;2023-08-20T14:20:43;4.80;;;3.90;;
59492;SDS011;45497;43.996;22.876;2023-08-20T14:23:08;5.40;;;3.70;;
59492;SDS011;45497;43.996;22.876;2023-08-20T14:25:34;6.77;;;4.10;;
59492;SDS011;45497;43.996;22.876;2023-08-20T14:28:00;6.07;;;4.20;;
59492;SDS011;45497;43.996;22.876;2023-08-20T14:30:25;5.00;;;3.80;;
59492;SDS011;45497;43.996;22.876;2023-08-20T14:32:52;6.30;;;4.38;;
59492;SDS011;45497;43.996;22.876;2023-08-20T14:35:19;9.20;;;4.65;;
59492;SDS011;45497;43.996;22.876;2023-08-20T14:37:45;6.45;;;4.15;;
59492;SDS011;45497;43.996;22.876;2023-08-20T14:40:10;6.67;;;4.23;;
59492;SDS011;45497;43.996;22.876;2023-08-20T14:42:36;7.47;;;3.90;;
59492;SDS011;45497;43.996;22.876;2023-08-20T14:45:02;6.57;;;4.18;;
59492;SDS011;45497;43.996;22.876;2023-08-20T14:47:29;7.72;;;3.90;;